Time;durP1;ratioP1;P1;durP2;ratioP2;P2;SDS_P1;SDS_P2;PMS_P1;PMS_P2;Temp;Humidity;BMP_temperature;BMP_pressure;BME280_temperature;BME280_humidity;BME280_pressure;Samples;Min_cycle;Max_cycle;Signal;HPM_P1;HPM_P2
2021/04/15 00:01:26;;;;;;;6.28;4.32;;;;;;;2.98;53.79;98176.84;5084887;28;20024;-76
2021/04/15 00:03:52;;;;;;;5.78;3.50;;;;;;;3.08;54.14;98171.47;5107231;28;20050;-76
2021/04/15 00:06:29;;;;;;;6.00;3.63;;;;;;;2.93;54.08;98179.13;5090950;27;20529;-76
2021/04/15 00:08:57;;;;;;;6.65;3.80;;;;;;;2.99;53.60;98175.88;5107681;28;20430;-76
2021/04/15 00:11:28;;;;;;;5.45;3.88;;;;;;;2.88;54.46;98181.41;5090636;28;20119;-76
2021/04/15 00:13:55;;;;;;;4.65;3.28;;;;;;;2.96;54.20;98178.78;5092926;27;20070;-76
2021/04/15 00:16:22;;;;;;;6.43;3.28;;;;;;;2.98;54.10;98179.44;5093582;28;20073;-76
2021/04/15 00:18:47;;;;;;;4.18;3.00;;;;;;;2.99;54.74;98177.66;5061318;28;20114;-76
2021/04/15 00:21:14;;;;;;;5.32;3.30;;;;;;;2.87;54.21;98174.66;5064704;28;20103;-76
2021/04/15 00:23:39;;;;;;;5.13;3.03;;;;;;;2.80;54.99;98171.97;5079734;27;20052;-76
2021/04/15 00:26:07;;;;;;;4.07;2.42;;;;;;;2.69;54.98;98163.84;5088894;27;20023;-76
2021/04/15 00:28:32;;;;;;;3.83;2.53;;;;;;;2.82;54.63;98164.09;5075809;27;20023;-76
2021/04/15 00:30:58;;;;;;;3.38;2.03;;;;;;;2.80;55.09;98159.09;5079377;28;20039;-76
2021/04/15 00:33:24;;;;;;;3.88;2.13;;;;;;;2.79;54.85;98157.53;5068520;28;20023;-76
2021/04/15 00:35:49;;;;;;;4.78;2.13;;;;;;;2.79;54.85;98154.94;5072880;27;20071;-76
2021/04/15 00:38:16;;;;;;;4.30;2.15;;;;;;;2.78;54.65;98152.53;5127396;27;20028;-76
2021/04/15 00:40:44;;;;;;;3.30;2.38;;;;;;;2.74;55.35;98156.41;5095908;28;20439;-76
2021/04/15 00:43:11;;;;;;;3.42;2.30;;;;;;;2.71;54.99;98149.84;5095028;28;20070;-76
2021/04/15 00:45:39;;;;;;;4.75;2.60;;;;;;;2.68;55.70;98147.63;5078357;27;20051;-76
2021/04/15 00:48:09;;;;;;;3.97;2.85;;;;;;;2.66;55.77;98147.00;5096707;27;20042;-76
2021/04/15 00:50:49;;;;;;;5.90;2.92;;;;;;;2.55;55.72;98144.78;5084945;27;20025;-76
2021/04/15 00:53:20;;;;;;;2.80;2.40;;;;;;;2.67;55.52;98138.28;5104528;28;20479;-76
2021/04/15 00:55:48;;;;;;;4.53;2.65;;;;;;;2.71;55.57;98147.28;5077684;27;20530;-76
2021/04/15 00:58:14;;;;;;;3.65;2.58;;;;;;;2.75;55.48;98129.72;5065203;28;20052;-76
2021/04/15 01:00:40;;;;;;;4.38;3.03;;;;;;;2.85;55.91;98126.94;5083695;28;20123;-76
2021/04/15 01:03:06;;;;;;;3.80;2.67;;;;;;;2.85;55.97;98122.59;5096802;28;20531;-76
2021/04/15 01:05:34;;;;;;;5.30;3.13;;;;;;;2.76;55.78;98124.44;5068498;28;20799;-76
2021/04/15 01:08:00;;;;;;;5.57;3.03;;;;;;;2.91;56.33;98128.81;5099150;28;20454;-76
2021/04/15 01:10:26;;;;;;;5.75;3.65;;;;;;;2.90;56.08;98130.59;5099028;28;20111;-76
2021/04/15 01:13:10;;;;;;;8.13;4.00;;;;;;;2.65;56.51;98129.16;5109645;27;20062;-76
2021/04/15 01:16:06;;;;;;;5.22;3.92;;;;;;;2.68;56.67;98131.41;5087386;27;20039;-76
2021/04/15 01:19:04;;;;;;;4.68;3.17;;;;;;;2.67;56.44;98135.72;5100173;27;20038;-76
2021/04/15 01:22:00;;;;;;;4.82;3.28;;;;;;;2.73;56.85;98127.34;5081331;28;20028;-76
2021/04/15 01:24:40;;;;;;;5.40;3.40;;;;;;;2.71;57.33;98134.41;5098956;28;20035;-76
2021/04/15 01:27:26;;;;;;;4.95;3.50;;;;;;;2.74;57.12;98120.41;5069562;28;20348;-76
2021/04/15 01:30:12;;;;;;;5.97;3.88;;;;;;;2.94;56.54;98129.28;5100421;27;20038;-76
2021/04/15 01:32:55;;;;;;;5.80;3.63;;;;;;;2.77;56.99;98126.00;5098460;28;20431;-76
2021/04/15 01:35:25;;;;;;;6.53;3.42;;;;;;;2.96;56.14;98131.69;5105883;28;20035;-76
2021/04/15 01:38:01;;;;;;;5.75;3.53;;;;;;;2.81;56.19;98126.47;5083056;27;20473;-76
2021/04/15 01:40:31;;;;;;;5.22;3.53;;;;;;;2.89;56.11;98131.56;5097298;27;20365;-76
2021/04/15 01:43:18;;;;;;;4.38;3.08;;;;;;;2.76;56.74;98133.91;5109778;27;20031;-76
2021/04/15 01:45:48;;;;;;;7.25;3.72;;;;;;;2.90;56.11;98127.25;5106056;27;20040;-76
2021/04/15 01:48:16;;;;;;;7.65;3.70;;;;;;;2.91;56.59;98126.25;5075785;27;20035;-76
2021/04/15 01:50:45;;;;;;;5.60;3.72;;;;;;;2.73;56.40;98123.97;5107324;27;20027;-76
2021/04/15 01:53:23;;;;;;;6.15;3.65;;;;;;;2.56;56.49;98121.47;5101352;27;20381;-76
2021/04/15 01:55:52;;;;;;;4.78;3.25;;;;;;;2.70;56.37;98121.72;5078110;27;20051;-76
2021/04/15 01:58:36;;;;;;;5.00;3.22;;;;;;;2.52;56.92;98130.50;5100817;27;20040;-76
2021/04/15 02:01:18;;;;;;;4.88;3.13;;;;;;;2.57;56.86;98127.41;5092819;27;20050;-76
2021/04/15 02:03:45;;;;;;;5.40;3.70;;;;;;;2.62;56.16;98128.53;5077472;28;20027;-76
2021/04/15 02:06:15;;;;;;;6.13;3.20;;;;;;;2.54;56.28;98128.56;5103802;27;20027;-76
2021/04/15 02:08:43;;;;;;;5.90;3.35;;;;;;;2.62;55.76;98122.56;5096957;28;20078;-76
2021/04/15 02:11:16;;;;;;;4.30;2.90;;;;;;;2.50;56.69;98122.19;5075560;27;20083;-76
2021/04/15 02:13:46;;;;;;;5.00;3.33;;;;;;;2.43;56.42;98119.47;5070561;28;20097;-76
2021/04/15 02:16:15;;;;;;;6.65;3.40;;;;;;;2.40;56.60;98124.16;5072598;27;20400;-76
2021/04/15 02:18:48;;;;;;;4.95;3.15;;;;;;;2.26;56.83;98123.06;5084923;27;20474;-76
2021/04/15 02:21:32;;;;;;;4.57;3.20;;;;;;;2.14;56.87;98129.53;5104904;28;20035;-75
2021/04/15 02:24:24;;;;;;;5.05;3.20;;;;;;;2.02;57.16;98132.50;5102113;27;20477;-76
2021/04/15 02:26:52;;;;;;;5.60;3.30;;;;;;;2.20;56.93;98128.91;5079072;27;20131;-76
2021/04/15 02:29:22;;;;;;;6.05;3.80;;;;;;;2.16;56.96;98128.44;5097183;28;20034;-75
2021/04/15 02:31:55;;;;;;;5.65;3.95;;;;;;;2.02;56.78;98123.97;5091601;27;20065;-75
2021/04/15 02:34:30;;;;;;;5.65;3.35;;;;;;;1.96;56.22;98125.44;5078008;27;20057;-75
2021/04/15 02:36:59;;;;;;;4.63;3.10;;;;;;;2.03;56.47;98125.56;5084583;28;20027;-75
2021/04/15 02:39:29;;;;;;;6.63;3.80;;;;;;;2.11;57.28;98119.59;5087006;28;20397;-75
2021/04/15 02:41:56;;;;;;;4.85;2.90;;;;;;;2.08;57.14;98120.75;5086349;28;20566;-75
2021/04/15 02:44:26;;;;;;;5.53;3.35;;;;;;;1.98;57.52;98120.94;5062730;28;20111;-75
2021/04/15 02:46:56;;;;;;;5.25;3.35;;;;;;;2.11;57.20;98117.03;5086150;28;20023;-75
2021/04/15 02:49:24;;;;;;;6.30;3.33;;;;;;;2.08;58.01;98122.53;5110599;28;20382;-75
2021/04/15 02:51:55;;;;;;;6.07;3.05;;;;;;;2.04;57.74;98116.91;5106053;28;20034;-75
2021/04/15 02:54:33;;;;;;;4.90;2.97;;;;;;;2.02;57.85;98114.50;5093168;28;20088;-75
2021/04/15 02:57:02;;;;;;;4.80;3.67;;;;;;;2.06;57.67;98120.91;5086626;27;20027;-75
2021/04/15 02:59:31;;;;;;;5.28;3.50;;;;;;;1.96;58.11;98125.44;5113980;27;20035;-75
2021/04/15 03:02:01;;;;;;;6.47;3.90;;;;;;;1.91;58.07;98127.69;5117424;27;20496;-75
2021/04/15 03:04:26;;;;;;;5.20;3.50;;;;;;;2.13;58.48;98130.53;5117563;27;20047;-75
2021/04/15 03:06:53;;;;;;;6.95;3.85;;;;;;;2.06;58.72;98122.69;5086031;28;20064;-75
2021/04/15 03:09:20;;;;;;;7.90;3.78;;;;;;;2.08;58.21;98125.88;5087213;27;20437;-75
2021/04/15 03:11:54;;;;;;;7.03;3.65;;;;;;;1.91;59.02;98124.34;5098506;27;20063;-75
2021/04/15 03:14:23;;;;;;;7.22;3.47;;;;;;;1.93;58.72;98125.75;5117663;27;20342;-75
2021/04/15 03:16:50;;;;;;;5.13;3.13;;;;;;;1.97;58.38;98124.47;5099900;27;20042;-75
2021/04/15 03:19:20;;;;;;;5.22;3.03;;;;;;;1.74;58.45;98128.72;5093272;28;20532;-75
2021/04/15 03:22:03;;;;;;;8.30;4.82;;;;;;;1.63;58.96;98125.53;5104532;27;20031;-75
2021/04/15 03:24:33;;;;;;;9.45;4.68;;;;;;;1.71;58.30;98134.97;5100034;27;20023;-75
2021/04/15 03:26:59;;;;;;;7.03;3.95;;;;;;;1.88;58.58;98130.59;5113782;28;20351;-75
2021/04/15 03:29:29;;;;;;;6.70;3.63;;;;;;;1.82;58.52;98134.63;5097268;28;20122;-75
2021/04/15 03:32:32;;;;;;;7.60;3.90;;;;;;;1.59;59.58;98136.28;5096796;28;20461;-75
2021/04/15 03:35:03;;;;;;;6.15;3.50;;;;;;;1.84;59.97;98134.47;5113768;28;20086;-75
2021/04/15 03:37:38;;;;;;;6.05;3.33;;;;;;;1.57;59.50;98127.94;5096315;28;20081;-75
2021/04/15 03:40:06;;;;;;;6.93;4.00;;;;;;;1.75;59.16;98125.97;5133120;27;20054;-75
2021/04/15 03:42:38;;;;;;;5.72;3.22;;;;;;;1.61;59.04;98126.63;5113382;28;20111;-75
2021/04/15 03:45:07;;;;;;;7.35;3.63;;;;;;;1.66;59.28;98137.22;5080135;27;20019;-75
2021/04/15 03:47:37;;;;;;;7.70;4.18;;;;;;;1.64;59.33;98119.41;5099968;27;20047;-75
2021/04/15 03:50:08;;;;;;;8.00;4.28;;;;;;;1.63;59.35;98130.66;5116454;27;20327;-75
2021/04/15 03:52:39;;;;;;;6.70;4.10;;;;;;;1.65;59.67;98133.84;5093804;27;20482;-75
2021/04/15 03:55:09;;;;;;;7.95;4.28;;;;;;;1.62;59.58;98131.59;5090796;27;20109;-75
2021/04/15 03:57:37;;;;;;;6.43;4.45;;;;;;;1.82;59.61;98131.28;5134243;27;20350;-75
2021/04/15 04:00:08;;;;;;;7.20;4.60;;;;;;;1.66;59.67;98135.47;5100216;27;20114;-75
2021/04/15 04:02:37;;;;;;;8.45;4.93;;;;;;;1.73;59.69;98132.22;5108679;27;20041;-75
2021/04/15 04:05:07;;;;;;;7.90;4.68;;;;;;;1.67;59.97;98131.91;5098305;27;20077;-75
2021/04/15 04:07:40;;;;;;;9.10;4.75;;;;;;;1.56;60.06;98128.88;5096498;27;20040;-75
2021/04/15 04:10:07;;;;;;;6.80;3.97;;;;;;;1.73;59.89;98132.22;5072704;28;20063;-75
2021/04/15 04:13:01;;;;;;;6.53;3.97;;;;;;;1.32;60.00;98138.25;5106499;27;20149;-75
2021/04/15 04:15:30;;;;;;;6.25;3.97;;;;;;;1.45;59.74;98140.31;5075740;27;20528;-75
2021/04/15 04:18:02;;;;;;;6.25;4.40;;;;;;;1.47;59.61;98133.22;5068926;28;20036;-75
2021/04/15 04:20:35;;;;;;;8.80;4.85;;;;;;;1.42;59.70;98131.19;5113850;27;20524;-75
2021/04/15 04:23:10;;;;;;;9.90;5.57;;;;;;;1.33;59.78;98134.69;5113650;27;20035;-75
2021/04/15 04:25:45;;;;;;;10.95;6.20;;;;;;;1.34;60.44;98135.47;5106115;27;20507;-75
2021/04/15 04:28:15;;;;;;;11.15;5.88;;;;;;;1.46;60.79;98136.78;5100197;27;20522;-75
2021/04/15 04:30:48;;;;;;;8.40;5.30;;;;;;;1.37;60.39;98133.44;5107328;27;20425;-75
2021/04/15 04:33:16;;;;;;;10.88;5.97;;;;;;;1.45;59.87;98137.72;5108178;27;20418;-75
2021/04/15 04:35:45;;;;;;;8.45;5.03;;;;;;;1.40;59.45;98138.22;5066487;28;20360;-75
2021/04/15 04:38:11;;;;;;;10.23;6.10;;;;;;;1.43;60.23;98144.78;5104069;28;20055;-75
2021/04/15 04:40:45;;;;;;;11.70;6.03;;;;;;;1.26;60.78;98139.66;5102333;28;20110;-75
2021/04/15 04:43:31;;;;;;;10.40;5.82;;;;;;;1.23;61.39;98154.56;5109709;28;20023;-75
2021/04/15 04:46:02;;;;;;;8.57;5.28;;;;;;;1.35;61.07;98149.94;5078822;27;20131;-75
2021/04/15 04:48:30;;;;;;;11.10;6.13;;;;;;;1.37;61.16;98153.13;5112876;27;20463;-75
2021/04/15 04:51:10;;;;;;;11.55;6.07;;;;;;;1.35;61.58;98150.72;5110109;27;20046;-75
2021/04/15 04:53:42;;;;;;;10.63;5.97;;;;;;;1.42;61.23;98149.13;5106573;27;20034;-75
2021/04/15 04:56:07;;;;;;;11.77;6.90;;;;;;;1.66;61.50;98152.63;5071805;28;20398;-75
2021/04/15 04:58:33;;;;;;;12.02;6.88;;;;;;;1.70;61.10;98151.34;5102923;27;20266;-75
2021/04/15 05:00:59;;;;;;;11.63;5.72;;;;;;;1.77;61.55;98151.50;5094079;27;20035;-75
2021/04/15 05:03:26;;;;;;;11.68;6.22;;;;;;;1.71;60.59;98160.63;5094366;27;20341;-75
2021/04/15 05:06:07;;;;;;;11.88;6.28;;;;;;;1.54;61.22;98156.50;5111144;27;20378;-75
2021/04/15 05:08:54;;;;;;;10.80;6.18;;;;;;;1.52;61.43;98161.00;5091877;27;20030;-75
2021/04/15 05:11:20;;;;;;;12.38;7.80;;;;;;;1.72;62.69;98157.13;5105204;27;20422;-75
2021/04/15 05:13:45;;;;;;;14.07;7.35;;;;;;;1.80;62.04;98166.56;5080778;27;20106;-75
2021/04/15 05:16:11;;;;;;;12.80;6.78;;;;;;;1.72;62.38;98171.72;5094229;27;20027;-75
2021/04/15 05:18:38;;;;;;;11.85;6.63;;;;;;;1.80;62.13;98174.25;5099392;28;20386;-75
2021/04/15 05:21:16;;;;;;;14.40;8.43;;;;;;;1.61;62.40;98173.66;5090495;28;20046;-75
2021/04/15 05:23:50;;;;;;;12.57;6.53;;;;;;;1.65;62.46;98169.78;5103029;27;20035;-75
2021/04/15 05:26:20;;;;;;;13.52;7.32;;;;;;;1.83;62.08;98173.94;5104926;27;20019;-75
2021/04/15 05:28:48;;;;;;;13.45;7.18;;;;;;;1.94;62.19;98176.16;5110191;28;20387;-75
2021/04/15 05:31:16;;;;;;;13.52;8.05;;;;;;;1.98;62.39;98171.50;5106016;27;20541;-75
2021/04/15 05:33:42;;;;;;;13.02;7.85;;;;;;;2.09;62.46;98181.44;5110593;27;20038;-75
2021/04/15 05:36:21;;;;;;;16.67;8.85;;;;;;;1.92;62.55;98178.09;5111168;27;20031;-75
2021/04/15 05:38:52;;;;;;;15.55;8.65;;;;;;;1.96;62.42;98179.38;5109741;27;20382;-75
2021/04/15 05:41:23;;;;;;;12.82;7.50;;;;;;;2.05;62.31;98180.94;5109125;27;20042;-75
2021/04/15 05:43:50;;;;;;;16.05;9.38;;;;;;;1.91;63.19;98186.75;5095242;27;20062;-75
2021/04/15 05:46:20;;;;;;;17.67;10.45;;;;;;;1.85;63.39;98187.41;5111857;27;20526;-75
2021/04/15 05:48:47;;;;;;;17.60;10.07;;;;;;;2.17;62.52;98185.75;5094962;27;20027;-75
2021/04/15 05:51:19;;;;;;;25.95;14.98;;;;;;;2.16;62.28;98189.25;5075231;27;20588;-75
2021/04/15 05:53:49;;;;;;;23.25;15.60;;;;;;;2.27;61.92;98191.50;5093971;27;20533;-76
2021/04/15 05:56:20;;;;;;;18.95;11.60;;;;;;;2.31;62.06;98190.19;5106171;27;20073;-75
2021/04/15 05:59:15;;;;;;;16.50;10.07;;;;;;;2.37;61.85;98189.53;5067911;27;20031;-75
2021/04/15 06:02:07;;;;;;;;;;;;;;;2.14;63.44;98191.19;5100878;27;20035;-75
2021/04/15 06:04:42;;;;;;;17.15;10.90;;;;;;;2.65;61.62;98183.16;5072429;27;19912;-75
2021/04/15 06:07:12;;;;;;;24.55;12.10;;;;;;;2.75;62.21;98194.81;5103735;27;20035;-76
2021/04/15 06:09:37;;;;;;;24.48;12.25;;;;;;;3.04;62.20;98192.59;5105249;28;20161;-75
2021/04/15 06:12:15;;;;;;;17.70;9.27;;;;;;;3.06;61.63;98191.44;5101340;27;20099;-75
2021/04/15 06:14:52;;;;;;;16.88;9.25;;;;;;;3.16;61.23;98192.00;5095542;27;20374;-76
2021/04/15 06:17:26;;;;;;;18.60;9.52;;;;;;;3.59;60.46;98193.31;5076464;27;20026;-76
2021/04/15 06:20:10;;;;;;;14.15;8.20;;;;;;;3.92;59.39;98197.19;5092266;27;20040;-76
2021/04/15 06:22:41;;;;;;;14.90;8.05;;;;;;;4.17;58.65;98199.50;5075072;27;20019;-76
2021/04/15 06:25:29;;;;;;;13.43;8.48;;;;;;;4.04;59.08;98196.75;5093876;27;20027;-76
2021/04/15 06:28:10;;;;;;;11.80;7.40;;;;;;;4.26;58.24;98205.38;5103155;27;20526;-76
2021/04/15 06:30:42;;;;;;;12.93;7.80;;;;;;;4.38;58.50;98200.56;5091288;27;20110;-76
2021/04/15 06:33:10;;;;;;;12.98;7.25;;;;;;;4.47;58.46;98194.31;5092223;27;20066;-76
2021/04/15 06:35:36;;;;;;;10.43;6.78;;;;;;;4.60;58.57;98207.41;5089114;28;20073;-76
2021/04/15 06:38:36;;;;;;;13.15;7.55;;;;;;;4.36;58.05;98205.13;5098067;27;20035;-76
2021/04/15 06:41:45;;;;;;;10.55;6.57;;;;;;;4.67;57.45;98200.53;5087811;27;20524;-76
2021/04/15 06:44:51;;;;;;;14.55;7.25;;;;;;;4.53;57.76;98203.94;5093888;27;20461;-76
2021/04/15 06:48:00;;;;;;;12.10;7.28;;;;;;;4.58;58.22;98205.97;5120995;27;20043;-76
2021/04/15 06:51:03;;;;;;;12.38;7.35;;;;;;;4.93;56.30;98206.97;5090106;28;20035;-76
2021/04/15 06:53:34;;;;;;;11.68;7.03;;;;;;;4.90;57.34;98209.94;5120286;27;20039;-76
2021/04/15 06:56:37;;;;;;;12.00;7.07;;;;;;;5.12;56.20;98209.94;5109010;28;20116;-76
2021/04/15 06:59:08;;;;;;;11.32;6.65;;;;;;;5.19;56.26;98209.03;5129159;28;20027;-76
2021/04/15 07:01:54;;;;;;;11.18;7.07;;;;;;;5.18;56.20;98206.63;5128658;28;20062;-76
2021/04/15 07:04:26;;;;;;;;;;;;;;;4.92;57.29;98205.38;5109965;28;20547;-75
2021/04/15 07:07:04;;;;;;;9.15;6.50;;;;;;;5.04;56.72;98205.72;5092945;28;19949;-76
2021/04/15 07:10:07;;;;;;;10.05;6.72;;;;;;;5.20;56.52;98207.25;5126369;28;20095;-75
2021/04/15 07:12:59;;;;;;;13.32;6.63;;;;;;;5.94;54.95;98211.22;5123213;28;20042;-76
2021/04/15 07:16:08;;;;;;;10.40;5.82;;;;;;;5.71;54.86;98212.25;5092206;28;20027;-75
2021/04/15 07:18:59;;;;;;;10.65;5.75;;;;;;;6.17;53.45;98200.69;5093416;28;20047;-76
2021/04/15 07:21:42;;;;;;;9.43;6.38;;;;;;;6.51;52.91;98197.28;5042718;28;20667;-75
2021/04/15 07:24:30;;;;;;;8.95;5.90;;;;;;;6.46;53.04;98198.81;5085072;28;20053;-75
2021/04/15 07:27:10;;;;;;;8.73;6.03;;;;;;;6.65;52.74;98197.28;5073678;28;20242;-75
2021/04/15 07:30:09;;;;;;;8.98;5.55;;;;;;;6.88;51.83;98197.78;5108821;28;20478;-76
2021/04/15 07:33:09;;;;;;;10.93;5.93;;;;;;;6.88;51.86;98200.38;5106630;28;20038;-76
2021/04/15 07:35:46;;;;;;;8.75;5.55;;;;;;;6.79;51.83;98200.75;5088622;28;20031;-76
2021/04/15 07:38:34;;;;;;;10.40;5.80;;;;;;;7.44;49.91;98201.09;5119306;28;20482;-76
2021/04/15 07:41:38;;;;;;;9.88;5.95;;;;;;;7.40;51.09;98207.66;5090306;28;20043;-76
2021/04/15 07:44:20;;;;;;;13.88;6.90;;;;;;;7.42;50.69;98205.66;5112653;27;20076;-76
2021/04/15 07:46:50;;;;;;;11.40;6.72;;;;;;;8.07;48.75;98208.41;5079139;27;20106;-76
2021/04/15 07:49:40;;;;;;;10.35;5.72;;;;;;;8.09;48.35;98208.22;5096090;27;20039;-76
2021/04/15 07:52:41;;;;;;;12.13;6.55;;;;;;;8.23;48.06;98207.19;5095784;27;20027;-76
2021/04/15 07:55:34;;;;;;;8.77;5.70;;;;;;;8.48;48.16;98207.34;5096107;27;20632;-76
2021/04/15 07:58:10;;;;;;;15.18;7.70;;;;;;;8.67;47.61;98210.88;5093441;27;20028;-76
2021/04/15 08:01:02;;;;;;;9.55;5.90;;;;;;;8.04;48.69;98212.22;5094800;28;20356;-76
2021/04/15 08:04:05;;;;;;;12.40;6.60;;;;;;;8.20;47.89;98210.19;5126089;27;20362;-77
2021/04/15 08:06:34;;;;;;;7.95;6.15;;;;;;;8.47;47.88;98210.16;5080610;28;20693;-76
2021/04/15 08:09:14;;;;;;;9.55;4.93;;;;;;;8.55;47.35;98208.13;5101989;27;20034;-77
2021/04/15 08:12:07;;;;;;;7.15;4.88;;;;;;;9.47;45.99;98207.81;5086315;27;20042;-76
2021/04/15 08:14:58;;;;;;;7.80;5.13;;;;;;;9.51;44.99;98211.59;5094460;27;20036;-76
2021/04/15 08:17:43;;;;;;;6.60;4.85;;;;;;;10.41;43.48;98210.41;5108109;27;20023;-77
2021/04/15 08:20:46;;;;;;;8.85;4.72;;;;;;;9.41;44.25;98216.47;5093576;28;20046;-76
2021/04/15 08:23:12;;;;;;;6.90;5.00;;;;;;;9.43;45.25;98224.84;5036812;27;20451;-76
2021/04/15 08:26:03;;;;;;;7.80;4.85;;;;;;;9.12;44.97;98218.66;5078668;27;20024;-76
2021/04/15 08:29:00;;;;;;;6.97;4.30;;;;;;;9.37;43.40;98221.31;5072639;27;20386;-77
2021/04/15 08:31:53;;;;;;;6.32;4.13;;;;;;;9.21;44.43;98228.81;5078883;27;20165;-76
2021/04/15 08:34:45;;;;;;;7.13;4.45;;;;;;;9.03;45.41;98230.31;5111901;27;20121;-76
2021/04/15 08:37:23;;;;;;;6.63;4.53;;;;;;;10.19;42.75;98227.44;5080260;28;20032;-76
2021/04/15 08:39:58;;;;;;;5.65;4.18;;;;;;;10.42;42.32;98224.25;5106738;28;20062;-76
2021/04/15 08:43:05;;;;;;;6.57;4.77;;;;;;;10.13;42.63;98229.09;5092029;27;20035;-76
2021/04/15 08:45:36;;;;;;;6.30;4.88;;;;;;;10.54;41.66;98222.50;5115947;27;20566;-76
2021/04/15 08:48:33;;;;;;;7.38;4.43;;;;;;;10.76;41.75;98227.25;5095893;27;20023;-76
2021/04/15 08:51:36;;;;;;;7.68;4.70;;;;;;;10.81;41.67;98224.78;5109828;27;20039;-76
2021/04/15 08:54:08;;;;;;;6.35;5.05;;;;;;;10.96;40.93;98230.38;5093535;28;20530;-76
2021/04/15 08:56:40;;;;;;;5.05;3.97;;;;;;;10.11;41.47;98225.91;5094335;27;20058;-76
2021/04/15 08:59:15;;;;;;;5.95;4.63;;;;;;;10.24;41.82;98224.97;5086572;27;20474;-76
2021/04/15 09:01:40;;;;;;;4.85;4.32;;;;;;;10.34;41.67;98229.72;5129449;27;20035;-76
2021/04/15 09:04:14;;;;;;;6.15;4.22;;;;;;;10.38;41.07;98229.06;5124347;27;20046;-76
2021/04/15 09:06:45;;;;;;;7.03;4.10;;;;;;;10.13;41.47;98223.91;5115884;27;20035;-76
2021/04/15 09:09:35;;;;;;;6.80;4.05;;;;;;;10.02;41.28;98227.19;5104476;27;20284;-76
2021/04/15 09:12:00;;;;;;;4.65;3.67;;;;;;;9.36;42.88;98224.13;5102191;27;20089;-76
2021/04/15 09:14:57;;;;;;;3.88;3.47;;;;;;;8.63;43.22;98222.66;5109866;27;20044;-76
2021/04/15 09:17:30;;;;;;;6.03;3.88;;;;;;;8.93;42.26;98238.53;5105103;27;20524;-76
2021/04/15 09:20:20;;;;;;;4.03;3.10;;;;;;;8.91;42.65;98227.56;5073007;28;20368;-76
2021/04/15 09:23:31;;;;;;;5.15;3.28;;;;;;;8.43;42.77;98226.16;5096591;27;20031;-76
2021/04/15 09:26:11;;;;;;;6.30;3.15;;;;;;;9.08;41.83;98221.88;5093323;27;20081;-76
2021/04/15 09:28:47;;;;;;;5.25;3.40;;;;;;;9.65;40.94;98217.50;5094318;27;20091;-76
2021/04/15 09:31:25;;;;;;;4.03;3.30;;;;;;;9.51;40.75;98221.19;5096524;27;20110;-76
2021/04/15 09:33:59;;;;;;;4.35;3.22;;;;;;;9.61;41.08;98223.31;5128114;27;20041;-76
2021/04/15 09:36:40;;;;;;;4.53;3.38;;;;;;;9.46;40.71;98223.63;5107621;27;20035;-76
2021/04/15 09:39:57;;;;;;;4.40;3.33;;;;;;;8.44;41.22;98217.34;5118743;27;20054;-76
2021/04/15 09:42:41;;;;;;;4.22;2.88;;;;;;;8.67;41.87;98221.28;5057647;27;20455;-75
2021/04/15 09:45:25;;;;;;;6.15;2.80;;;;;;;8.65;40.68;98212.88;5082708;27;20031;-75
2021/04/15 09:48:13;;;;;;;4.38;2.83;;;;;;;9.11;40.62;98211.06;5091943;27;20031;-76
2021/04/15 09:50:41;;;;;;;3.83;2.35;;;;;;;10.59;37.84;98209.63;5091441;27;20149;-76
2021/04/15 09:53:10;;;;;;;3.63;2.88;;;;;;;10.47;36.12;98206.94;5106770;27;20566;-76
2021/04/15 09:56:13;;;;;;;3.17;2.28;;;;;;;9.32;37.08;98207.31;5096172;28;20649;-76
2021/04/15 09:58:51;;;;;;;4.32;3.17;;;;;;;9.04;37.76;98202.53;5117841;27;20424;-76
2021/04/15 10:01:27;;;;;;;3.42;2.60;;;;;;;9.22;37.71;98200.00;5079459;28;20511;-76
2021/04/15 10:04:01;;;;;;;5.80;2.60;;;;;;;9.17;38.48;98189.47;5090383;28;20055;-76
2021/04/15 10:06:43;;;;;;;4.90;2.85;;;;;;;9.60;37.93;98193.16;5106129;28;20149;-76
2021/04/15 10:09:26;;;;;;;3.58;2.47;;;;;;;8.53;38.33;98193.75;5103766;27;20031;-76
2021/04/15 10:12:19;;;;;;;3.13;2.47;;;;;;;9.31;37.06;98184.97;5097352;28;20027;-76
2021/04/15 10:14:57;;;;;;;4.35;2.85;;;;;;;9.42;37.85;98196.47;5109325;27;20131;-76
2021/04/15 10:17:29;;;;;;;3.67;2.53;;;;;;;9.06;38.49;98188.31;5095286;28;20034;-76
2021/04/15 10:20:19;;;;;;;4.35;2.58;;;;;;;9.10;39.49;98186.06;5114191;27;20035;-76
2021/04/15 10:23:22;;;;;;;3.72;2.90;;;;;;;9.04;39.45;98190.31;5074107;27;20517;-76
2021/04/15 10:25:56;;;;;;;3.60;2.88;;;;;;;9.63;37.96;98190.91;5111318;27;20039;-76
2021/04/15 10:28:52;;;;;;;8.07;6.10;;;;;;;10.15;36.95;98185.44;5097708;28;20329;-76
2021/04/15 10:31:40;;;;;;;6.00;3.30;;;;;;;10.55;36.18;98174.59;5119746;27;20805;-75
2021/04/15 10:34:17;;;;;;;3.83;3.17;;;;;;;12.30;33.69;98170.91;5074573;28;20448;-76
2021/04/15 10:36:54;;;;;;;4.05;2.53;;;;;;;12.20;33.13;98163.69;5087815;27;20126;-76
2021/04/15 10:39:45;;;;;;;5.25;2.97;;;;;;;11.25;34.50;98173.25;5105793;27;20031;-77
2021/04/15 10:42:19;;;;;;;4.75;3.42;;;;;;;11.32;34.46;98168.72;5079846;27;20541;-76
2021/04/15 10:45:30;;;;;;;4.55;2.83;;;;;;;10.17;36.76;98170.38;5104700;27;20118;-76
2021/04/15 10:48:26;;;;;;;5.05;2.67;;;;;;;10.21;35.22;98168.97;5125727;27;20039;-76
2021/04/15 10:50:58;;;;;;;4.50;3.28;;;;;;;11.03;34.25;98163.34;5119436;27;20035;-76
2021/04/15 10:53:44;;;;;;;5.78;3.05;;;;;;;11.22;34.92;98161.47;5108678;28;20035;-76
2021/04/15 10:56:25;;;;;;;4.80;3.42;;;;;;;11.52;34.99;98159.81;5106058;28;20035;-76
2021/04/15 10:58:59;;;;;;;3.40;2.63;;;;;;;11.14;33.46;98163.59;5111972;28;20065;-76
2021/04/15 11:01:34;;;;;;;3.33;2.30;;;;;;;11.03;34.07;98165.94;5104744;28;20406;-76
2021/04/15 11:04:21;;;;;;;2.60;2.10;;;;;;;11.04;33.08;98169.34;5082964;28;20031;-76
2021/04/15 11:06:49;;;;;;;4.03;2.28;;;;;;;11.82;32.20;98154.47;5115265;28;20087;-76
2021/04/15 11:09:32;;;;;;;3.95;2.13;;;;;;;12.91;30.84;98150.38;5059537;28;20359;-76
2021/04/15 11:12:17;;;;;;;2.92;2.33;;;;;;;13.27;30.71;98149.13;5100028;28;20093;-76
2021/04/15 11:14:46;;;;;;;3.92;3.05;;;;;;;12.62;30.99;98149.59;5091159;28;20028;-76
2021/04/15 11:17:22;;;;;;;5.53;4.30;;;;;;;11.23;34.83;98154.44;5070046;27;20036;-77
2021/04/15 11:19:49;;;;;;;5.30;4.45;;;;;;;10.52;37.21;98158.63;5090585;28;20181;-76
2021/04/15 11:22:21;;;;;;;9.80;6.93;;;;;;;10.48;37.07;98153.06;5082851;27;20436;-76
2021/04/15 11:24:46;;;;;;;6.35;3.85;;;;;;;11.18;34.62;98152.50;5094460;27;20031;-76
2021/04/15 11:27:13;;;;;;;3.38;2.10;;;;;;;10.13;36.30;98154.41;5085842;28;20038;-76
2021/04/15 11:29:45;;;;;;;5.68;4.25;;;;;;;10.07;35.72;98157.09;5108306;27;20490;-76
2021/04/15 11:32:42;;;;;;;3.72;2.92;;;;;;;10.01;35.10;98152.75;5099293;28;20553;-76
2021/04/15 11:35:17;;;;;;;6.57;4.68;;;;;;;10.10;34.00;98136.63;5058617;27;20044;-76
2021/04/15 11:37:44;;;;;;;6.05;3.10;;;;;;;10.79;34.41;98144.22;5111200;27;20363;-76
2021/04/15 11:40:34;;;;;;;3.03;2.00;;;;;;;10.74;33.40;98144.09;5088356;27;20024;-76
2021/04/15 11:43:03;;;;;;;3.72;2.00;;;;;;;11.58;32.67;98140.63;5128977;27;20486;-76
2021/04/15 11:45:34;;;;;;;3.22;2.22;;;;;;;12.18;32.32;98127.34;5105703;27;20050;-76
2021/04/15 11:48:18;;;;;;;3.63;2.40;;;;;;;12.77;32.90;98128.16;5111695;27;20067;-76
2021/04/15 11:50:46;;;;;;;3.28;2.22;;;;;;;13.56;29.70;98122.91;5092892;27;20485;-76
2021/04/15 11:53:28;;;;;;;2.35;1.85;;;;;;;14.04;29.68;98104.97;5100716;27;20493;-76
2021/04/15 11:56:12;;;;;;;2.90;2.42;;;;;;;12.74;28.29;98124.19;5109097;27;20066;-76
2021/04/15 11:58:37;;;;;;;2.53;1.80;;;;;;;12.24;30.05;98125.63;5100030;28;20508;-76
2021/04/15 12:01:03;;;;;;;2.60;1.80;;;;;;;11.65;28.62;98119.66;5092922;27;20030;-75
2021/04/15 12:03:28;;;;;;;3.55;2.15;;;;;;;12.61;30.31;98116.63;5055632;28;20031;-76
2021/04/15 12:05:59;;;;;;;2.65;1.90;;;;;;;12.50;29.62;98126.13;5067178;27;20042;-76
2021/04/15 12:08:31;;;;;;;4.00;2.33;;;;;;;13.37;28.56;98125.00;5086289;27;20033;-76
2021/04/15 12:11:04;;;;;;;3.45;2.00;;;;;;;12.20;29.51;98126.31;5107117;28;20332;-75
2021/04/15 12:13:44;;;;;;;3.97;1.95;;;;;;;10.97;31.27;98129.56;5091327;27;20034;-76
2021/04/15 12:16:15;;;;;;;3.97;2.78;;;;;;;10.54;29.47;98135.75;5084825;28;20039;-76
2021/04/15 12:18:48;;;;;;;2.75;2.15;;;;;;;10.68;30.13;98124.94;5129786;27;20153;-76
2021/04/15 12:21:32;;;;;;;2.80;2.10;;;;;;;11.52;30.25;98118.09;5083194;27;20031;-76
2021/04/15 12:24:23;;;;;;;3.30;2.70;;;;;;;10.71;31.47;98122.91;5109823;27;20051;-76
2021/04/15 12:27:13;;;;;;;2.95;2.40;;;;;;;10.65;32.17;98122.00;5106715;27;20064;-77